Debi Sharp — WDE8185 — position and weather

sailwx.info

Track history (hours):
 
Tides and Currents Weather Stations Pressure Air Temp Water Temp Dewpoint Dewpoint Depression Visibility Wind Speed Wind Dir Waves Ship Positions

Debi Sharp

Owner: Crounse Corporation, Maysville, KY. More information available from US FCC via Universal Licensing System and Coast Guard Vessel Documentation Center.

Last reported at 2015-Aug-21 12:31 UTC. Time now 2015-Aug-28 00:21 UTC.
Position N 38°54' W 084°51'.

Length 41 m.

Type: Towing. MMSI: 367402530.

Date/timePositionNaut miles runAvg speedWind from/ knotsBaromVisibWave heightAir tempDewpointWater temp
2015-Aug-21 12:31N 38°54' W 084°51'0 0.1
2015-Aug-21 11:26N 38°54' W 084°50'2 2.4
2015-Aug-21 10:31N 38°56' W 084°52'5 4.6
2015-Aug-21 09:28N 39°01' W 084°51'4 4.2
2015-Aug-21 08:33N 39°04' W 084°52'5 5.3
2015-Aug-21 07:33N 39°07' W 084°47'4 3.9
2015-Aug-21 06:33N 39°07' W 084°42'5 5.1
2015-Aug-21 05:33N 39°04' W 084°36'5 4.9
2015-Aug-21 04:33N 39°06' W 084°30'3 3.3
2015-Aug-21 03:33N 39°04' W 084°26'5 4.9
2015-Aug-21 02:32N 39°02' W 084°21'5 5.3
2015-Aug-21 01:33N 38°57' W 084°17'5 5.4
2015-Aug-21 00:33N 38°53' W 084°14'6 4.6
2015-Aug-20 23:20N 38°48' W 084°11'1 1.5
2015-Aug-20 22:32N 38°48' W 084°09'17 1.4
2015-Aug-20 10:23N 38°42' W 083°49'4 1.9
2015-Aug-20 08:32N 38°45' W 083°51'4 4.5
2015-Aug-20 07:32N 38°47' W 083°57'4 4.1
2015-Aug-20 06:33N 38°46' W 084°02'4 3.9
2015-Aug-20 05:32N 38°47' W 084°07'3 2.7
2015-Aug-20 04:27N 38°48' W 084°10'1 1.5
2015-Aug-20 03:33N 38°48' W 084°12'3 2.6
2015-Aug-20 02:33N 38°50' W 084°14'4 3.8
2015-Aug-20 01:33N 38°54' W 084°15'4 4.0
2015-Aug-20 00:33N 38°57' W 084°17'4 4.1
2015-Aug-19 23:33N 39°01' W 084°19'4 4.0
2015-Aug-19 22:33N 39°03' W 084°24'3 3.5
2015-Aug-19 21:33N 39°06' W 084°26'3 2.7
2015-Aug-19 20:32N 39°06' W 084°30'3 3.3
2015-Aug-19 19:32N 39°05' W 084°34'4 3.8
2015-Aug-19 18:32N 39°05' W 084°39'4 4.0
2015-Aug-19 17:33N 39°07' W 084°43'3 3.2
2015-Aug-19 16:33N 39°07' W 084°47'5 4.2
2015-Aug-19 15:27N 39°05' W 084°52'8 3.5
2015-Aug-19 13:14N 38°57' W 084°51'  
2015-Aug-11 17:15N 38°56' W 084°52'8 4.7
2015-Aug-11 15:29N 39°04' W 084°53'5 5.5
2015-Aug-11 14:33N 39°07' W 084°47'4 3.9
2015-Aug-11 13:33N 39°07' W 084°42'5 5.1
2015-Aug-11 12:34N 39°04' W 084°37'  
Track history (hours):
 
Tides and Currents Weather Stations Pressure Air Temp Water Temp Dewpoint Dewpoint Depression Visibility Wind Speed Wind Dir Waves Ship Positions

Debi Sharp

Owner: Crounse Corporation, Maysville, KY. More information available from US FCC via Universal Licensing System and Coast Guard Vessel Documentation Center.

Last reported at 2015-Aug-21 12:31 UTC. Time now 2015-Aug-28 00:21 UTC.
Position N 38°54' W 084°51'.

Length 41 m.

Type: Towing. MMSI: 367402530.

Date/timePositionNaut miles runAvg speedWind from/ knotsBaromVisibWave heightAir tempDewpointWater temp
2015-Aug-21 12:31N 38°54' W 084°51'0 0.1
2015-Aug-21 11:26N 38°54' W 084°50'2 2.4
2015-Aug-21 10:31N 38°56' W 084°52'5 4.6
2015-Aug-21 09:28N 39°01' W 084°51'4 4.2
2015-Aug-21 08:33N 39°04' W 084°52'5 5.3
2015-Aug-21 07:33N 39°07' W 084°47'4 3.9
2015-Aug-21 06:33N 39°07' W 084°42'5 5.1
2015-Aug-21 05:33N 39°04' W 084°36'5 4.9
2015-Aug-21 04:33N 39°06' W 084°30'3 3.3
2015-Aug-21 03:33N 39°04' W 084°26'5 4.9
2015-Aug-21 02:32N 39°02' W 084°21'5 5.3
2015-Aug-21 01:33N 38°57' W 084°17'5 5.4
2015-Aug-21 00:33N 38°53' W 084°14'6 4.6
2015-Aug-20 23:20N 38°48' W 084°11'1 1.5
2015-Aug-20 22:32N 38°48' W 084°09'17 1.4
2015-Aug-20 10:23N 38°42' W 083°49'4 1.9
2015-Aug-20 08:32N 38°45' W 083°51'4 4.5
2015-Aug-20 07:32N 38°47' W 083°57'4 4.1
2015-Aug-20 06:33N 38°46' W 084°02'4 3.9
2015-Aug-20 05:32N 38°47' W 084°07'3 2.7
2015-Aug-20 04:27N 38°48' W 084°10'1 1.5
2015-Aug-20 03:33N 38°48' W 084°12'3 2.6
2015-Aug-20 02:33N 38°50' W 084°14'4 3.8
2015-Aug-20 01:33N 38°54' W 084°15'4 4.0
2015-Aug-20 00:33N 38°57' W 084°17'4 4.1
2015-Aug-19 23:33N 39°01' W 084°19'4 4.0
2015-Aug-19 22:33N 39°03' W 084°24'3 3.5
2015-Aug-19 21:33N 39°06' W 084°26'3 2.7
2015-Aug-19 20:32N 39°06' W 084°30'3 3.3
2015-Aug-19 19:32N 39°05' W 084°34'4 3.8
2015-Aug-19 18:32N 39°05' W 084°39'4 4.0
2015-Aug-19 17:33N 39°07' W 084°43'3 3.2
2015-Aug-19 16:33N 39°07' W 084°47'5 4.2
2015-Aug-19 15:27N 39°05' W 084°52'8 3.5
2015-Aug-19 13:14N 38°57' W 084°51'  
2015-Aug-11 17:15N 38°56' W 084°52'8 4.7
2015-Aug-11 15:29N 39°04' W 084°53'5 5.5
2015-Aug-11 14:33N 39°07' W 084°47'4 3.9
2015-Aug-11 13:33N 39°07' W 084°42'5 5.1
2015-Aug-11 12:34N 39°04' W 084°37'  

Dump ship's entire track history